KRLD

Details ICAO KRLD
Name RICHLAND
Region United States
Timezone America/Los_Angeles (UTC-8.0)
Plans Departing 2
Arriving 0
Stats Elevation 394 ft / 120 m (AMSL)
Location 46.305638° -119.304185°
Runways 2
Magnetic Variation 14.774° E
Sunrise 2017-12-14 15:34:27 UTC / 2017-12-14 07:34:27 Local
Sunset 2017-12-15 00:12:27 UTC / 2017-12-14 16:12:27 Local
Advertisement - Login to hide

Runways

ID Width Length Bearing (true) Bearing (mag) Surface Threshold Offset Overrun Length
01 75 ft / 23 m 4,009 ft / 1,222 m 25.52° 10.75° Asphalt 0 ft / 0 m 0 ft / 0 m
08 100 ft / 30 m 3,985 ft / 1,215 m 95.45° 80.68° Asphalt 0 ft / 0 m 0 ft / 0 m
19 75 ft / 23 m 4,009 ft / 1,222 m 205.53° 190.76° Asphalt 0 ft / 0 m 0 ft / 0 m
26 100 ft / 30 m 3,985 ft / 1,215 m 275.47° 260.70° Asphalt 0 ft / 0 m 0 ft / 0 m

Approach Navaids

Runway Type Ident Frequency Range Bearing (true) Bearing (mag) Slope Elevation
19 Localiser IRLD 110.50 MHz 18 nm / 33 km 205.52° 190.74° - 394 ft / 120 m (AMSL)

Map

Weather


0- 5 10 15 20 25 30 35+ Temperature / ° C

Clouds and Precipitation
Forecast for 2017-12-14 18:00 UTC. Updated 2 hours ago

Ground ~20,000 ft ~40,000 ft Winds

METAR

KRLD 141715Z AUTO 13003KT 10SM OVC019 01/M01 A3064 RMK AO2 T00121013

TAF

Not found

Frequencies

Recorded 132.62 MHz AWOS 3
Clearance 122.40 MHz CLNC DEL
Unicom 122.70 MHz CTAF/UNICOM
Approach 128.75 MHz CHINOOK APP/DEP
Warning: Do not use this data for real-world aviation or navigation. No guarantee of current accuracy is given.